Flight Track Log - Related Links

Times and Time Zones

All times are in EDT time to prevent confusion due to time zone crossing. See the AWI3551 flight status page for this flight to view local times or setup timezone preferences in your user account.

Time Position Orientation Groundspeed Altitude Reporting Facility
EDT Latitude Longitude Course Direction KTS MPH feet Rate Location/Type
Fri 05:36:49 AM 42.9167 -78.7500 174° South 177 204 1,500  Level Buffalo TRACON
Fri 05:37:55 AM 42.8667 -78.8167 224° Southwest 225 259 3,200 1,571 Climbing Buffalo TRACON
Fri 05:38:55 AM 42.8053 -78.8144 178° South 275 316 4,800 2,350 Climbing Cleveland Center
Fri 05:39:00 AM 42.6048 -78.6809 172° South  Level FlightAware Approximate
Fri 05:39:55 AM 42.7153 -78.7917 169° South 284 327 7,900  Level Cleveland Center
Fri 05:40:00 AM 42.4956 -78.6604 173° South  Level FlightAware Approximate
Fri 05:40:55 AM 42.6439 -78.7683 166° South 296 341 9,900  Level Cleveland Center
Fri 05:41:00 AM 42.3858 -78.6500 180° South  Level FlightAware Approximate
Fri 05:41:55 AM 42.5581 -78.7425 167° South 302 348 12,100  Level Cleveland Center
Fri 05:42:00 AM 42.2761 -78.6370 174° South  Level FlightAware Approximate
Fri 05:42:55 AM 42.4661 -78.7169 168° South 319 367 14,300  Level Cleveland Center
Fri 05:43:55 AM 42.3697 -78.6919 169° South 342 394 16,100 1,800 Climbing Cleveland Center
Fri 05:44:55 AM 42.2692 -78.6611 167° South 356 410 17,900 1,800 Climbing Cleveland Center
Fri 05:45:55 AM 42.1561 -78.6281 168° South 373 429 19,700 1,550 Climbing Cleveland Center
Fri 05:46:55 AM 42.0475 -78.6258 179° South 378 435 21,000 1,300 Climbing Cleveland Center
Fri 05:47:55 AM 41.9392 -78.6236 179° South 389 448 22,300 1,000 Climbing Cleveland Center
Fri 05:48:55 AM 41.8286 -78.6186 178° South 394 453 23,000 350 Climbing Cleveland Center
Fri 05:49:55 AM 41.7214 -78.5744 163° South 406 467 23,000  Level Cleveland Center
Fri 05:50:55 AM 41.6242 -78.5025 151° Southeast 400 460 23,000  Level Cleveland Center
Fri 05:51:55 AM 41.5250 -78.4308 152° Southeast 400 460 23,000  Level Cleveland Center
Fri 05:52:55 AM 41.4236 -78.3567 151° Southeast 405 466 23,000  Level Cleveland Center
Fri 05:53:55 AM 41.3261 -78.2881 152° Southeast 405 466 23,000  Level Cleveland Center
Fri 05:55:06 AM 41.2117 -78.2044 151° Southeast 396 456 23,000  Level New York Center
Fri 05:56:07 AM 41.1236 -78.1425 152° Southeast 396 456 23,000  Level New York Center
Fri 05:57:05 AM 41.0261 -78.0714 151° Southeast 401 461 23,000  Level New York Center
Fri 05:58:07 AM 40.9281 -78.0031 152° Southeast 401 461 23,000  Level New York Center
Fri 05:59:05 AM 40.8511 -77.8961 134° Southeast 395 455 23,000  Level New York Center
Fri 06:00:05 AM 40.7803 -77.7900 131° Southeast 395 455 23,000  Level New York Center
Fri 06:01:06 AM 40.7097 -77.6814 131° Southeast 390 449 23,000 -300 Level New York Center
Fri 06:02:05 AM 40.6389 -77.5731 131° Southeast 390 449 22,400 -893 Descending New York Center
Fri 06:03:07 AM 40.5619 -77.4589 132° Southeast 390 449 21,200 -1,082 Descending New York Center
Fri 06:04:07 AM 40.4928 -77.3539 131° Southeast 385 443 20,200 -966 Descending New York Center
Fri 06:05:05 AM 40.4211 -77.2544 133° Southeast 385 443 19,300 -950 Descending New York Center
Fri 06:06:07 AM 40.3597 -77.1586 130° Southeast 376 433 18,300 -1,150 Descending New York Center
Fri 06:07:05 AM 40.2972 -77.0414 125° Southeast 375 432 17,000 -1,169 Descending New York Center
Fri 06:08:05 AM 40.2661 -76.9161 108° East 359 413 16,000 -1,240 Descending New York Center
Fri 06:09:06 AM 40.2392 -76.7939 106° East 353 406 14,500 -1,636 Descending New York Center
Fri 06:10:06 AM 40.2131 -76.6883 108° East 347 399 12,700 -1,850 Descending New York Center
Fri 06:11:06 AM 40.1875 -76.5747 106° East 337 388 10,800 -1,361 Descending New York Center
Fri 06:12:05 AM 40.1578 -76.4556 108° East 317 365 10,000 -400 Descending New York Center
Fri 06:13:06 AM 40.1319 -76.3447 107° East 317 365 10,000  Level New York Center
Fri 06:14:05 AM 40.1178 -76.2431 100° East 311 358 10,000 -50 Level New York Center
Fri 06:15:05 AM 40.1103 -76.1339 95° East 306 352 9,900 -600 Descending New York Center
Fri 06:16:05 AM 40.1008 -76.0219 96° East 293 337 8,800 -950 Descending New York Center
Fri 06:17:05 AM 40.0950 -75.9211 94° East 288 331 8,000 -393 Descending New York Center
Fri 06:18:07 AM 40.0864 -75.8308 97° East 277 319 8,000  Level New York Center
Fri 06:19:05 AM 40.0844 -75.7250 91° East 277 319 8,000  Level New York Center
Fri 06:20:05 AM 40.1367 -75.6769 35° Northeast 234 269 8,000  Level New York Center
Fri 06:21:05 AM 40.2053 -75.6247 30° Northeast 253 291 8,000 -496 Level New York Center
Fri 06:22:06 AM 40.2272 -75.5475 70° East 244 281 7,000 -984 Descending New York Center
Fri 06:23:07 AM 40.1914 -75.4553 117° Southeast 219 252 6,000 -496 Descending New York Center
Fri 06:24:07 AM 40.1544 -75.3878 126° Southeast 238 274 6,000  Level New York Center
Fri 06:24:57 AM 40.1167 -75.3167 125° Southeast 238 274 6,000  Level Philadelphia TRACON
Fri 06:26:03 AM 40.0833 -75.2333 118° Southeast 241 277 6,000  Level Philadelphia TRACON
Fri 06:27:03 AM 40.0167 -75.2000 159° South 249 287 6,000  Level Philadelphia TRACON
Fri 06:28:03 AM 39.9833 -75.1500 131° Southeast 199 229 6,000 -250 Level Philadelphia TRACON
Fri 06:29:03 AM 40.0000 -75.0833 72° East 193 222 5,500 -895 Descending Philadelphia TRACON
Fri 06:29:57 AM 39.9667 -75.0333 131° Southeast 225 259 4,300 -1,333 Descending Philadelphia TRACON

Login

Don't have an account? Register now (free) for customized features, flight alerts, and more!